sensor_id;sensor_type;location;lat;lon;timestamp;temperature;humidity
16243;DHT22;11719;51.052;6.982;2024-01-30T00:01:24;11.50;99.90
16243;DHT22;11719;51.052;6.982;2024-01-30T00:03:49;11.50;99.90
16243;DHT22;11719;51.052;6.982;2024-01-30T00:06:19;11.50;99.90
16243;DHT22;11719;51.052;6.982;2024-01-30T00:08:49;11.50;99.90
16243;DHT22;11719;51.052;6.982;2024-01-30T00:11:15;11.50;99.90
16243;DHT22;11719;51.052;6.982;2024-01-30T00:13:47;11.50;99.90
16243;DHT22;11719;51.052;6.982;2024-01-30T00:16:22;11.50;99.90
16243;DHT22;11719;51.052;6.982;2024-01-30T00:18:56;11.50;99.90
16243;DHT22;11719;51.052;6.982;2024-01-30T00:21:23;11.50;99.90
16243;DHT22;11719;51.052;6.982;2024-01-30T00:23:49;11.50;99.90
16243;DHT22;11719;51.052;6.982;2024-01-30T00:26:15;11.50;99.90
16243;DHT22;11719;51.052;6.982;2024-01-30T00:28:41;11.40;99.90
16243;DHT22;11719;51.052;6.982;2024-01-30T00:31:15;11.40;99.90
16243;DHT22;11719;51.052;6.982;2024-01-30T00:33:41;11.40;99.90
16243;DHT22;11719;51.052;6.982;2024-01-30T00:36:08;11.40;99.90
16243;DHT22;11719;51.052;6.982;2024-01-30T00:38:37;11.40;99.90
16243;DHT22;11719;51.052;6.982;2024-01-30T00:41:05;11.40;99.90
16243;DHT22;11719;51.052;6.982;2024-01-30T00:43:50;11.40;99.90
16243;DHT22;11719;51.052;6.982;2024-01-30T00:46:15;11.40;99.90
16243;DHT22;11719;51.052;6.982;2024-01-30T00:48:52;11.40;99.90
16243;DHT22;11719;51.052;6.982;2024-01-30T00:51:21;11.50;99.90
16243;DHT22;11719;51.052;6.982;2024-01-30T00:53:47;11.40;99.90
16243;DHT22;11719;51.052;6.982;2024-01-30T00:56:13;11.40;99.90
16243;DHT22;11719;51.052;6.982;2024-01-30T00:58:39;11.30;99.90
16243;DHT22;11719;51.052;6.982;2024-01-30T01:01:04;11.30;99.90
16243;DHT22;11719;51.052;6.982;2024-01-30T01:03:37;11.40;99.90
16243;DHT22;11719;51.052;6.982;2024-01-30T01:06:06;11.40;99.90
16243;DHT22;11719;51.052;6.982;2024-01-30T01:08:31;11.40;99.90
16243;DHT22;11719;51.052;6.982;2024-01-30T01:10:57;11.40;99.90
16243;DHT22;11719;51.052;6.982;2024-01-30T01:13:23;11.40;99.90
16243;DHT22;11719;51.052;6.982;2024-01-30T01:15:51;11.40;99.90
16243;DHT22;11719;51.052;6.982;2024-01-30T01:18:17;11.40;99.90
16243;DHT22;11719;51.052;6.982;2024-01-30T01:20:45;11.40;99.90
16243;DHT22;11719;51.052;6.982;2024-01-30T01:23:11;11.40;99.90
16243;DHT22;11719;51.052;6.982;2024-01-30T01:25:47;11.40;99.90
16243;DHT22;11719;51.052;6.982;2024-01-30T01:28:21;11.30;99.90
16243;DHT22;11719;51.052;6.982;2024-01-30T01:30:47;11.30;99.90
16243;DHT22;11719;51.052;6.982;2024-01-30T01:33:13;11.20;99.90
16243;DHT22;11719;51.052;6.982;2024-01-30T01:35:39;11.20;99.90
16243;DHT22;11719;51.052;6.982;2024-01-30T01:38:05;11.20;99.90
16243;DHT22;11719;51.052;6.982;2024-01-30T01:40:41;11.20;99.90
16243;DHT22;11719;51.052;6.982;2024-01-30T01:43:06;11.20;99.90
16243;DHT22;11719;51.052;6.982;2024-01-30T01:45:32;11.20;99.90
16243;DHT22;11719;51.052;6.982;2024-01-30T01:48:04;11.20;99.90
16243;DHT22;11719;51.052;6.982;2024-01-30T01:50:33;11.20;99.90
16243;DHT22;11719;51.052;6.982;2024-01-30T01:52:59;11.10;99.90
16243;DHT22;11719;51.052;6.982;2024-01-30T01:55:25;11.10;99.90
16243;DHT22;11719;51.052;6.982;2024-01-30T01:57:59;11.10;99.90
16243;DHT22;11719;51.052;6.982;2024-01-30T02:00:25;11.20;99.90
16243;DHT22;11719;51.052;6.982;2024-01-30T02:03:00;11.20;99.90
16243;DHT22;11719;51.052;6.982;2024-01-30T02:05:26;11.20;99.90
16243;DHT22;11719;51.052;6.982;2024-01-30T02:07:52;11.20;99.90
16243;DHT22;11719;51.052;6.982;2024-01-30T02:10:18;11.20;99.90
16243;DHT22;11719;51.052;6.982;2024-01-30T02:12:49;11.30;99.90
16243;DHT22;11719;51.052;6.982;2024-01-30T02:15:17;11.30;99.90
16243;DHT22;11719;51.052;6.982;2024-01-30T02:17:43;11.30;99.90
16243;DHT22;11719;51.052;6.982;2024-01-30T02:20:15;11.40;99.90
16243;DHT22;11719;51.052;6.982;2024-01-30T02:22:41;11.40;99.90
16243;DHT22;11719;51.052;6.982;2024-01-30T02:25:17;11.40;99.90
16243;DHT22;11719;51.052;6.982;2024-01-30T02:27:43;11.40;99.90
16243;DHT22;11719;51.052;6.982;2024-01-30T02:30:11;11.40;99.90
16243;DHT22;11719;51.052;6.982;2024-01-30T02:32:37;11.50;99.90
16243;DHT22;11719;51.052;6.982;2024-01-30T02:35:08;11.40;99.90
16243;DHT22;11719;51.052;6.982;2024-01-30T02:37:42;11.40;99.90
16243;DHT22;11719;51.052;6.982;2024-01-30T02:40:29;11.40;99.90
16243;DHT22;11719;51.052;6.982;2024-01-30T02:42:56;11.40;99.90
16243;DHT22;11719;51.052;6.982;2024-01-30T02:45:38;11.40;99.90
16243;DHT22;11719;51.052;6.982;2024-01-30T02:48:04;11.40;99.90
16243;DHT22;11719;51.052;6.982;2024-01-30T02:50:34;11.40;99.90
16243;DHT22;11719;51.052;6.982;2024-01-30T02:53:15;11.50;99.90
16243;DHT22;11719;51.052;6.982;2024-01-30T02:55:46;11.50;99.90
16243;DHT22;11719;51.052;6.982;2024-01-30T02:58:25;11.50;99.90
16243;DHT22;11719;51.052;6.982;2024-01-30T03:01:00;11.50;99.90
16243;DHT22;11719;51.052;6.982;2024-01-30T03:03:25;11.50;99.90
16243;DHT22;11719;51.052;6.982;2024-01-30T03:05:57;11.40;99.90
16243;DHT22;11719;51.052;6.982;2024-01-30T03:08:23;11.50;99.90
16243;DHT22;11719;51.052;6.982;2024-01-30T03:10:54;11.50;99.90
16243;DHT22;11719;51.052;6.982;2024-01-30T03:13:28;11.50;99.90
16243;DHT22;11719;51.052;6.982;2024-01-30T03:15:54;11.50;99.90
16243;DHT22;11719;51.052;6.982;2024-01-30T03:18:20;11.50;99.90
16243;DHT22;11719;51.052;6.982;2024-01-30T03:20:48;11.50;99.90
16243;DHT22;11719;51.052;6.982;2024-01-30T03:23:14;11.60;99.90
16243;DHT22;11719;51.052;6.982;2024-01-30T03:25:43;11.60;99.90
16243;DHT22;11719;51.052;6.982;2024-01-30T03:28:15;11.60;99.90
16243;DHT22;11719;51.052;6.982;2024-01-30T03:30:43;11.60;99.90
16243;DHT22;11719;51.052;6.982;2024-01-30T03:33:09;11.60;99.90
16243;DHT22;11719;51.052;6.982;2024-01-30T03:35:35;11.60;99.90
16243;DHT22;11719;51.052;6.982;2024-01-30T03:38:01;11.60;99.90
16243;DHT22;11719;51.052;6.982;2024-01-30T03:40:26;11.50;99.90
16243;DHT22;11719;51.052;6.982;2024-01-30T03:42:52;11.50;99.90
16243;DHT22;11719;51.052;6.982;2024-01-30T03:45:18;11.50;99.90
16243;DHT22;11719;51.052;6.982;2024-01-30T03:47:45;11.40;99.90
16243;DHT22;11719;51.052;6.982;2024-01-30T03:50:10;11.40;99.90
16243;DHT22;11719;51.052;6.982;2024-01-30T03:52:36;11.40;99.90
16243;DHT22;11719;51.052;6.982;2024-01-30T03:55:03;11.40;99.90
16243;DHT22;11719;51.052;6.982;2024-01-30T03:57:42;11.40;99.90
16243;DHT22;11719;51.052;6.982;2024-01-30T04:00:08;11.30;99.90
16243;DHT22;11719;51.052;6.982;2024-01-30T04:02:34;11.30;99.90
16243;DHT22;11719;51.052;6.982;2024-01-30T04:05:03;11.30;99.90
16243;DHT22;11719;51.052;6.982;2024-01-30T04:07:29;11.30;99.90
16243;DHT22;11719;51.052;6.982;2024-01-30T04:09:55;11.30;99.90
16243;DHT22;11719;51.052;6.982;2024-01-30T04:12:21;11.40;99.90
16243;DHT22;11719;51.052;6.982;2024-01-30T04:14:46;11.30;99.90
16243;DHT22;11719;51.052;6.982;2024-01-30T04:17:12;11.40;99.90
16243;DHT22;11719;51.052;6.982;2024-01-30T04:19:40;11.40;99.90
16243;DHT22;11719;51.052;6.982;2024-01-30T04:22:11;11.40;99.90
16243;DHT22;11719;51.052;6.982;2024-01-30T04:24:37;11.40;99.90
16243;DHT22;11719;51.052;6.982;2024-01-30T04:27:03;11.30;99.90
16243;DHT22;11719;51.052;6.982;2024-01-30T04:29:28;11.40;99.90
16243;DHT22;11719;51.052;6.982;2024-01-30T04:31:56;11.40;99.90
16243;DHT22;11719;51.052;6.982;2024-01-30T04:34:31;11.40;99.90
16243;DHT22;11719;51.052;6.982;2024-01-30T04:36:57;11.30;99.90
16243;DHT22;11719;51.052;6.982;2024-01-30T04:39:24;11.30;99.90
16243;DHT22;11719;51.052;6.982;2024-01-30T04:41:50;11.30;99.90
16243;DHT22;11719;51.052;6.982;2024-01-30T04:44:16;11.30;99.90
16243;DHT22;11719;51.052;6.982;2024-01-30T04:46:42;11.30;99.90
16243;DHT22;11719;51.052;6.982;2024-01-30T04:49:08;11.30;99.90
16243;DHT22;11719;51.052;6.982;2024-01-30T04:51:51;11.30;99.90
16243;DHT22;11719;51.052;6.982;2024-01-30T04:54:20;11.20;99.90
16243;DHT22;11719;51.052;6.982;2024-01-30T04:56:46;11.20;99.90
16243;DHT22;11719;51.052;6.982;2024-01-30T04:59:12;11.10;99.90
16243;DHT22;11719;51.052;6.982;2024-01-30T05:01:40;11.00;99.90
16243;DHT22;11719;51.052;6.982;2024-01-30T05:04:09;11.00;99.90
16243;DHT22;11719;51.052;6.982;2024-01-30T05:06:40;11.00;99.90
16243;DHT22;11719;51.052;6.982;2024-01-30T05:09:06;10.90;99.90
16243;DHT22;11719;51.052;6.982;2024-01-30T05:11:36;10.90;99.90
16243;DHT22;11719;51.052;6.982;2024-01-30T05:14:10;10.90;99.90
16243;DHT22;11719;51.052;6.982;2024-01-30T05:16:37;10.90;99.90
16243;DHT22;11719;51.052;6.982;2024-01-30T05:19:02;10.90;99.90
16243;DHT22;11719;51.052;6.982;2024-01-30T05:21:31;10.90;99.90
16243;DHT22;11719;51.052;6.982;2024-01-30T05:23:57;10.90;99.90
16243;DHT22;11719;51.052;6.982;2024-01-30T05:26:23;11.00;99.90
16243;DHT22;11719;51.052;6.982;2024-01-30T05:28:53;11.00;99.90
16243;DHT22;11719;51.052;6.982;2024-01-30T05:31:22;11.10;99.90
16243;DHT22;11719;51.052;6.982;2024-01-30T05:33:48;11.10;99.90
16243;DHT22;11719;51.052;6.982;2024-01-30T05:36:23;11.10;99.90
16243;DHT22;11719;51.052;6.982;2024-01-30T05:38:48;11.00;99.90
16243;DHT22;11719;51.052;6.982;2024-01-30T05:41:14;11.00;99.90
16243;DHT22;11719;51.052;6.982;2024-01-30T05:43:46;11.00;99.90
16243;DHT22;11719;51.052;6.982;2024-01-30T05:46:12;11.00;99.90
16243;DHT22;11719;51.052;6.982;2024-01-30T05:48:37;11.10;99.90
16243;DHT22;11719;51.052;6.982;2024-01-30T05:51:16;11.10;99.90
16243;DHT22;11719;51.052;6.982;2024-01-30T05:53:42;11.20;99.90
16243;DHT22;11719;51.052;6.982;2024-01-30T05:56:17;11.20;99.90
16243;DHT22;11719;51.052;6.982;2024-01-30T05:58:43;11.30;99.90
16243;DHT22;11719;51.052;6.982;2024-01-30T06:01:12;11.20;99.90
16243;DHT22;11719;51.052;6.982;2024-01-30T06:03:38;11.20;99.90
16243;DHT22;11719;51.052;6.982;2024-01-30T06:06:11;11.30;99.90
16243;DHT22;11719;51.052;6.982;2024-01-30T06:08:41;11.30;99.90
16243;DHT22;11719;51.052;6.982;2024-01-30T06:11:12;11.30;99.90
16243;DHT22;11719;51.052;6.982;2024-01-30T06:13:38;11.30;99.90
16243;DHT22;11719;51.052;6.982;2024-01-30T06:16:04;11.40;99.90
16243;DHT22;11719;51.052;6.982;2024-01-30T06:18:45;11.40;99.90
16243;DHT22;11719;51.052;6.982;2024-01-30T06:21:14;11.40;99.90
16243;DHT22;11719;51.052;6.982;2024-01-30T06:23:52;11.40;99.90
16243;DHT22;11719;51.052;6.982;2024-01-30T06:26:18;11.40;99.90
16243;DHT22;11719;51.052;6.982;2024-01-30T06:28:43;11.40;99.90
16243;DHT22;11719;51.052;6.982;2024-01-30T06:31:10;11.40;99.90
16243;DHT22;11719;51.052;6.982;2024-01-30T06:33:35;11.40;99.90
16243;DHT22;11719;51.052;6.982;2024-01-30T06:36:04;11.50;99.90
16243;DHT22;11719;51.052;6.982;2024-01-30T06:38:29;11.50;99.90
16243;DHT22;11719;51.052;6.982;2024-01-30T06:40:55;11.60;99.90
16243;DHT22;11719;51.052;6.982;2024-01-30T06:43:22;11.70;99.90
16243;DHT22;11719;51.052;6.982;2024-01-30T06:45:50;11.90;99.90
16243;DHT22;11719;51.052;6.982;2024-01-30T06:48:22;12.00;99.90
16243;DHT22;11719;51.052;6.982;2024-01-30T06:50:48;12.00;99.90
16243;DHT22;11719;51.052;6.982;2024-01-30T06:53:14;12.10;99.90
16243;DHT22;11719;51.052;6.982;2024-01-30T06:55:44;12.30;99.90
16243;DHT22;11719;51.052;6.982;2024-01-30T06:58:10;12.40;99.90
16243;DHT22;11719;51.052;6.982;2024-01-30T07:00:43;12.50;99.90
16243;DHT22;11719;51.052;6.982;2024-01-30T07:03:12;12.70;99.90
16243;DHT22;11719;51.052;6.982;2024-01-30T07:05:51;12.60;99.90
16243;DHT22;11719;51.052;6.982;2024-01-30T07:08:20;12.60;99.90
16243;DHT22;11719;51.052;6.982;2024-01-30T07:11:06;12.50;99.90
16243;DHT22;11719;51.052;6.982;2024-01-30T07:13:35;12.40;99.90
16243;DHT22;11719;51.052;6.982;2024-01-30T07:16:01;12.30;99.90
16243;DHT22;11719;51.052;6.982;2024-01-30T07:18:34;12.30;99.90
16243;DHT22;11719;51.052;6.982;2024-01-30T07:21:02;12.20;99.90
16243;DHT22;11719;51.052;6.982;2024-01-30T07:23:36;12.30;99.90
16243;DHT22;11719;51.052;6.982;2024-01-30T07:26:07;12.10;99.90
16243;DHT22;11719;51.052;6.982;2024-01-30T07:28:43;12.10;99.90
16243;DHT22;11719;51.052;6.982;2024-01-30T07:31:16;12.00;99.90
16243;DHT22;11719;51.052;6.982;2024-01-30T07:33:42;12.00;99.90
16243;DHT22;11719;51.052;6.982;2024-01-30T07:36:08;11.90;99.90
16243;DHT22;11719;51.052;6.982;2024-01-30T07:38:42;11.90;99.90
16243;DHT22;11719;51.052;6.982;2024-01-30T07:41:08;11.90;99.90
16243;DHT22;11719;51.052;6.982;2024-01-30T07:43:42;11.80;99.90
16243;DHT22;11719;51.052;6.982;2024-01-30T07:46:10;11.90;99.90
16243;DHT22;11719;51.052;6.982;2024-01-30T07:48:36;11.90;99.90
16243;DHT22;11719;51.052;6.982;2024-01-30T07:51:01;11.90;99.90
16243;DHT22;11719;51.052;6.982;2024-01-30T07:53:32;11.90;99.90
16243;DHT22;11719;51.052;6.982;2024-01-30T08:03:21;12.30;99.90
16243;DHT22;11719;51.052;6.982;2024-01-30T08:05:51;12.50;99.90
16243;DHT22;11719;51.052;6.982;2024-01-30T08:08:34;12.60;99.90
16243;DHT22;11719;51.052;6.982;2024-01-30T08:11:12;12.70;99.90
16243;DHT22;11719;51.052;6.982;2024-01-30T08:13:48;12.60;99.90
16243;DHT22;11719;51.052;6.982;2024-01-30T08:16:21;12.70;99.90
16243;DHT22;11719;51.052;6.982;2024-01-30T08:19:03;12.60;99.90
16243;DHT22;11719;51.052;6.982;2024-01-30T08:21:28;12.80;99.90
16243;DHT22;11719;51.052;6.982;2024-01-30T08:23:56;12.80;99.90
16243;DHT22;11719;51.052;6.982;2024-01-30T08:26:50;12.90;99.90
16243;DHT22;11719;51.052;6.982;2024-01-30T08:29:15;12.90;99.90
16243;DHT22;11719;51.052;6.982;2024-01-30T08:31:54;13.00;99.90
16243;DHT22;11719;51.052;6.982;2024-01-30T08:34:24;13.10;99.90
16243;DHT22;11719;51.052;6.982;2024-01-30T08:36:58;13.10;99.90
16243;DHT22;11719;51.052;6.982;2024-01-30T08:39:32;13.10;99.90
16243;DHT22;11719;51.052;6.982;2024-01-30T08:41:58;13.20;99.90
16243;DHT22;11719;51.052;6.982;2024-01-30T08:44:48;13.20;99.90
16243;DHT22;11719;51.052;6.982;2024-01-30T08:47:15;13.30;99.90
16243;DHT22;11719;51.052;6.982;2024-01-30T08:50:04;13.30;99.90
16243;DHT22;11719;51.052;6.982;2024-01-30T08:52:30;13.40;99.90
16243;DHT22;11719;51.052;6.982;2024-01-30T08:55:08;13.50;99.90
16243;DHT22;11719;51.052;6.982;2024-01-30T08:57:52;13.60;99.90
16243;DHT22;11719;51.052;6.982;2024-01-30T09:00:18;13.50;99.90
16243;DHT22;11719;51.052;6.982;2024-01-30T09:02:44;13.40;99.90
16243;DHT22;11719;51.052;6.982;2024-01-30T09:05:12;13.40;99.90
16243;DHT22;11719;51.052;6.982;2024-01-30T09:07:41;13.40;99.90
16243;DHT22;11719;51.052;6.982;2024-01-30T09:10:07;13.40;99.90
16243;DHT22;11719;51.052;6.982;2024-01-30T09:12:33;13.30;99.90
16243;DHT22;11719;51.052;6.982;2024-01-30T09:15:17;13.30;99.90
16243;DHT22;11719;51.052;6.982;2024-01-30T09:17:53;13.30;99.90
16243;DHT22;11719;51.052;6.982;2024-01-30T09:20:19;13.30;99.90
16243;DHT22;11719;51.052;6.982;2024-01-30T09:22:47;13.40;99.90
16243;DHT22;11719;51.052;6.982;2024-01-30T09:25:21;13.50;99.90
16243;DHT22;11719;51.052;6.982;2024-01-30T09:27:48;13.40;99.90
16243;DHT22;11719;51.052;6.982;2024-01-30T09:30:17;13.50;99.90
16243;DHT22;11719;51.052;6.982;2024-01-30T09:32:58;13.60;99.90
16243;DHT22;11719;51.052;6.982;2024-01-30T09:35:33;13.70;99.90
16243;DHT22;11719;51.052;6.982;2024-01-30T09:37:59;13.70;99.90
16243;DHT22;11719;51.052;6.982;2024-01-30T09:40:36;13.80;99.90
16243;DHT22;11719;51.052;6.982;2024-01-30T09:43:03;13.70;99.90
16243;DHT22;11719;51.052;6.982;2024-01-30T09:45:30;13.80;99.90
16243;DHT22;11719;51.052;6.982;2024-01-30T09:47:59;13.80;99.90
16243;DHT22;11719;51.052;6.982;2024-01-30T09:50:25;13.70;99.90
16243;DHT22;11719;51.052;6.982;2024-01-30T09:52:53;13.70;99.90
16243;DHT22;11719;51.052;6.982;2024-01-30T09:55:20;13.80;99.90
16243;DHT22;11719;51.052;6.982;2024-01-30T09:57:47;13.80;99.90
16243;DHT22;11719;51.052;6.982;2024-01-30T10:00:13;13.70;99.90
16243;DHT22;11719;51.052;6.982;2024-01-30T10:02:39;13.80;99.90
16243;DHT22;11719;51.052;6.982;2024-01-30T10:05:06;13.70;99.90
16243;DHT22;11719;51.052;6.982;2024-01-30T10:07:31;13.80;99.90
16243;DHT22;11719;51.052;6.982;2024-01-30T10:10:01;13.80;99.90
16243;DHT22;11719;51.052;6.982;2024-01-30T10:12:30;13.70;99.90
16243;DHT22;11719;51.052;6.982;2024-01-30T10:15:00;13.80;99.90
16243;DHT22;11719;51.052;6.982;2024-01-30T10:17:33;13.80;99.90
16243;DHT22;11719;51.052;6.982;2024-01-30T10:19:59;13.90;99.90
16243;DHT22;11719;51.052;6.982;2024-01-30T10:22:25;13.90;99.90
16243;DHT22;11719;51.052;6.982;2024-01-30T10:24:54;14.00;99.90
16243;DHT22;11719;51.052;6.982;2024-01-30T10:27:25;14.10;99.90
16243;DHT22;11719;51.052;6.982;2024-01-30T10:29:59;14.20;99.90
16243;DHT22;11719;51.052;6.982;2024-01-30T10:32:29;14.20;99.90
16243;DHT22;11719;51.052;6.982;2024-01-30T10:34:57;14.20;99.90
16243;DHT22;11719;51.052;6.982;2024-01-30T10:37:25;14.10;99.90
16243;DHT22;11719;51.052;6.982;2024-01-30T10:39:59;14.10;99.90
16243;DHT22;11719;51.052;6.982;2024-01-30T10:42:31;14.20;99.90
16243;DHT22;11719;51.052;6.982;2024-01-30T10:45:16;14.20;99.90
16243;DHT22;11719;51.052;6.982;2024-01-30T10:47:54;14.20;99.90
16243;DHT22;11719;51.052;6.982;2024-01-30T10:50:24;14.30;99.90
16243;DHT22;11719;51.052;6.982;2024-01-30T10:52:51;14.30;99.90
16243;DHT22;11719;51.052;6.982;2024-01-30T10:55:18;14.40;99.90
16243;DHT22;11719;51.052;6.982;2024-01-30T10:57:44;14.60;99.90
16243;DHT22;11719;51.052;6.982;2024-01-30T11:00:36;14.60;99.90
16243;DHT22;11719;51.052;6.982;2024-01-30T11:03:02;14.70;99.90
16243;DHT22;11719;51.052;6.982;2024-01-30T11:05:33;14.80;99.90
16243;DHT22;11719;51.052;6.982;2024-01-30T11:08:22;14.80;99.90
16243;DHT22;11719;51.052;6.982;2024-01-30T11:10:54;14.60;99.90
16243;DHT22;11719;51.052;6.982;2024-01-30T11:13:27;14.50;99.90
16243;DHT22;11719;51.052;6.982;2024-01-30T11:15:54;14.40;99.90
16243;DHT22;11719;51.052;6.982;2024-01-30T11:18:35;14.50;99.90
16243;DHT22;11719;51.052;6.982;2024-01-30T11:21:04;14.50;99.90
16243;DHT22;11719;51.052;6.982;2024-01-30T11:23:41;14.50;99.90
16243;DHT22;11719;51.052;6.982;2024-01-30T11:26:13;14.50;99.90
16243;DHT22;11719;51.052;6.982;2024-01-30T11:28:52;14.60;99.90
16243;DHT22;11719;51.052;6.982;2024-01-30T11:31:19;14.60;99.90
16243;DHT22;11719;51.052;6.982;2024-01-30T11:33:44;14.60;99.90
16243;DHT22;11719;51.052;6.982;2024-01-30T11:36:13;14.60;99.90
16243;DHT22;11719;51.052;6.982;2024-01-30T11:38:40;14.60;99.90
16243;DHT22;11719;51.052;6.982;2024-01-30T11:41:06;14.70;99.90
16243;DHT22;11719;51.052;6.982;2024-01-30T11:43:38;14.70;99.90
16243;DHT22;11719;51.052;6.982;2024-01-30T11:46:07;14.90;99.90
16243;DHT22;11719;51.052;6.982;2024-01-30T11:48:36;15.00;99.90
16243;DHT22;11719;51.052;6.982;2024-01-30T11:51:02;15.00;99.90
16243;DHT22;11719;51.052;6.982;2024-01-30T11:53:35;15.00;99.90
16243;DHT22;11719;51.052;6.982;2024-01-30T11:56:00;15.00;99.90
16243;DHT22;11719;51.052;6.982;2024-01-30T11:58:26;15.00;99.90
16243;DHT22;11719;51.052;6.982;2024-01-30T12:00:55;14.90;99.90
16243;DHT22;11719;51.052;6.982;2024-01-30T12:03:25;14.80;99.90
16243;DHT22;11719;51.052;6.982;2024-01-30T12:05:58;14.70;99.90
16243;DHT22;11719;51.052;6.982;2024-01-30T12:08:24;14.70;99.90
16243;DHT22;11719;51.052;6.982;2024-01-30T12:10:58;14.70;99.90
16243;DHT22;11719;51.052;6.982;2024-01-30T12:13:34;14.70;99.90
16243;DHT22;11719;51.052;6.982;2024-01-30T12:16:09;14.70;99.90
16243;DHT22;11719;51.052;6.982;2024-01-30T12:18:42;14.80;99.90
16243;DHT22;11719;51.052;6.982;2024-01-30T12:21:22;14.80;99.90
16243;DHT22;11719;51.052;6.982;2024-01-30T12:23:56;14.70;99.90
16243;DHT22;11719;51.052;6.982;2024-01-30T12:26:28;14.70;99.90
16243;DHT22;11719;51.052;6.982;2024-01-30T12:28:56;14.70;99.90
16243;DHT22;11719;51.052;6.982;2024-01-30T12:31:45;14.60;99.90
16243;DHT22;11719;51.052;6.982;2024-01-30T12:34:19;14.60;99.90
16243;DHT22;11719;51.052;6.982;2024-01-30T12:36:55;14.60;99.90
16243;DHT22;11719;51.052;6.982;2024-01-30T12:39:24;14.60;99.90
16243;DHT22;11719;51.052;6.982;2024-01-30T12:41:58;14.50;99.90
16243;DHT22;11719;51.052;6.982;2024-01-30T12:44:26;14.50;99.90
16243;DHT22;11719;51.052;6.982;2024-01-30T12:46:55;14.60;99.90
16243;DHT22;11719;51.052;6.982;2024-01-30T12:49:21;14.60;99.90
16243;DHT22;11719;51.052;6.982;2024-01-30T12:52:11;14.60;99.90
16243;DHT22;11719;51.052;6.982;2024-01-30T12:54:41;14.60;99.90
16243;DHT22;11719;51.052;6.982;2024-01-30T12:57:07;14.60;99.90
16243;DHT22;11719;51.052;6.982;2024-01-30T12:59:40;14.60;99.90
16243;DHT22;11719;51.052;6.982;2024-01-30T13:02:06;14.70;99.90
16243;DHT22;11719;51.052;6.982;2024-01-30T13:04:32;14.70;99.90
16243;DHT22;11719;51.052;6.982;2024-01-30T13:06:58;14.70;99.90
16243;DHT22;11719;51.052;6.982;2024-01-30T13:10:06;14.60;99.90
16243;DHT22;11719;51.052;6.982;2024-01-30T13:12:42;14.70;99.90
16243;DHT22;11719;51.052;6.982;2024-01-30T13:15:14;14.70;99.90
16243;DHT22;11719;51.052;6.982;2024-01-30T13:17:57;14.60;99.90
16243;DHT22;11719;51.052;6.982;2024-01-30T13:20:31;14.70;99.90
16243;DHT22;11719;51.052;6.982;2024-01-30T13:22:57;14.60;99.90
16243;DHT22;11719;51.052;6.982;2024-01-30T13:25:23;14.60;99.90
16243;DHT22;11719;51.052;6.982;2024-01-30T13:27:49;14.60;99.90
16243;DHT22;11719;51.052;6.982;2024-01-30T13:30:26;14.70;99.90
16243;DHT22;11719;51.052;6.982;2024-01-30T13:32:51;14.80;99.90
16243;DHT22;11719;51.052;6.982;2024-01-30T13:35:20;14.80;99.90
16243;DHT22;11719;51.052;6.982;2024-01-30T13:37:46;14.80;99.90
16243;DHT22;11719;51.052;6.982;2024-01-30T13:40:25;14.80;99.90
16243;DHT22;11719;51.052;6.982;2024-01-30T13:42:59;14.90;99.90
16243;DHT22;11719;51.052;6.982;2024-01-30T13:45:25;14.90;99.90
16243;DHT22;11719;51.052;6.982;2024-01-30T13:47:59;14.90;99.90
16243;DHT22;11719;51.052;6.982;2024-01-30T13:50:33;14.80;99.90
16243;DHT22;11719;51.052;6.982;2024-01-30T13:52:59;14.80;99.90
16243;DHT22;11719;51.052;6.982;2024-01-30T13:55:24;14.70;99.90
16243;DHT22;11719;51.052;6.982;2024-01-30T13:57:50;14.80;99.90
16243;DHT22;11719;51.052;6.982;2024-01-30T14:00:16;14.80;99.90
16243;DHT22;11719;51.052;6.982;2024-01-30T14:03:02;14.90;99.90
16243;DHT22;11719;51.052;6.982;2024-01-30T14:05:31;15.00;99.90
16243;DHT22;11719;51.052;6.982;2024-01-30T14:07:58;15.00;99.90
16243;DHT22;11719;51.052;6.982;2024-01-30T14:10:50;15.00;99.90
16243;DHT22;11719;51.052;6.982;2024-01-30T14:13:24;14.90;99.90
16243;DHT22;11719;51.052;6.982;2024-01-30T14:15:59;15.00;99.90
16243;DHT22;11719;51.052;6.982;2024-01-30T14:18:29;15.00;99.90
16243;DHT22;11719;51.052;6.982;2024-01-30T14:20:55;15.00;99.90
16243;DHT22;11719;51.052;6.982;2024-01-30T14:23:42;15.00;99.90
16243;DHT22;11719;51.052;6.982;2024-01-30T14:26:08;15.00;99.90
16243;DHT22;11719;51.052;6.982;2024-01-30T14:28:37;15.00;99.90
16243;DHT22;11719;51.052;6.982;2024-01-30T14:31:07;15.00;99.90
16243;DHT22;11719;51.052;6.982;2024-01-30T14:33:43;15.00;99.90
16243;DHT22;11719;51.052;6.982;2024-01-30T14:36:15;15.10;99.90
16243;DHT22;11719;51.052;6.982;2024-01-30T14:38:50;15.10;99.90
16243;DHT22;11719;51.052;6.982;2024-01-30T14:41:17;15.00;99.90
16243;DHT22;11719;51.052;6.982;2024-01-30T14:43:42;14.90;99.90
16243;DHT22;11719;51.052;6.982;2024-01-30T14:46:11;14.90;99.90
16243;DHT22;11719;51.052;6.982;2024-01-30T14:48:39;14.90;99.90
16243;DHT22;11719;51.052;6.982;2024-01-30T14:51:14;14.80;99.90
16243;DHT22;11719;51.052;6.982;2024-01-30T14:53:40;14.90;99.90
16243;DHT22;11719;51.052;6.982;2024-01-30T14:56:18;14.80;99.90
16243;DHT22;11719;51.052;6.982;2024-01-30T14:59:02;14.80;99.90
16243;DHT22;11719;51.052;6.982;2024-01-30T15:01:28;14.80;99.90
16243;DHT22;11719;51.052;6.982;2024-01-30T15:04:09;14.90;99.90
16243;DHT22;11719;51.052;6.982;2024-01-30T15:06:35;14.80;99.90
16243;DHT22;11719;51.052;6.982;2024-01-30T15:09:06;14.80;99.90
16243;DHT22;11719;51.052;6.982;2024-01-30T15:11:41;14.80;99.90
16243;DHT22;11719;51.052;6.982;2024-01-30T15:14:09;14.80;99.90
16243;DHT22;11719;51.052;6.982;2024-01-30T15:16:40;14.80;99.90
16243;DHT22;11719;51.052;6.982;2024-01-30T15:19:32;14.80;99.90
16243;DHT22;11719;51.052;6.982;2024-01-30T15:22:01;14.80;99.90
16243;DHT22;11719;51.052;6.982;2024-01-30T15:24:51;14.80;99.90
16243;DHT22;11719;51.052;6.982;2024-01-30T15:27:28;14.80;99.90
16243;DHT22;11719;51.052;6.982;2024-01-30T15:29:54;14.80;99.90
16243;DHT22;11719;51.052;6.982;2024-01-30T15:32:28;14.80;99.90
16243;DHT22;11719;51.052;6.982;2024-01-30T15:35:21;14.80;99.90
16243;DHT22;11719;51.052;6.982;2024-01-30T15:38:27;14.80;99.90
16243;DHT22;11719;51.052;6.982;2024-01-30T15:40:54;14.80;99.90
16243;DHT22;11719;51.052;6.982;2024-01-30T15:43:21;14.80;99.90
16243;DHT22;11719;51.052;6.982;2024-01-30T15:46:02;14.70;99.90
16243;DHT22;11719;51.052;6.982;2024-01-30T15:48:32;14.60;99.90
16243;DHT22;11719;51.052;6.982;2024-01-30T15:51:02;14.60;99.90
16243;DHT22;11719;51.052;6.982;2024-01-30T15:53:28;14.60;99.90
16243;DHT22;11719;51.052;6.982;2024-01-30T15:55:57;14.70;99.90
16243;DHT22;11719;51.052;6.982;2024-01-30T15:58:34;14.70;99.90